PWSweather.com
Personal Weather Stations
Station Observations
WATERF01
WaterfordIE

WaterfordIE

Lat: 52.2412507, Lon: -7.1414691

Elevation: 65

Station Type: Davis Vantage Vue

Latest ConditionsUpdated 11:20:01 PM GMT Monday, Sep 1, 2014
Currently Today's Max Today's Min Today's Average
Temperature 58.8°F14.9°C 64.0°F17.8°C 55.0°F12.8°C 60.0°F15.6°C
Dew Point 50.2°F10.1°C 57.6°F14.2°C 49.2°F9.6°C 52.7°F11.5°C
Winds 0.6 mph NNW1.0 kmh NNW 6.0 mph NW9.7 kmh NW - 2.3 mph 3.7 kmh
Wind Gusts 1.4 mph2.3 kmh 11.2 mph18.0 kmh - -
Humidity 73% 94% 61% 78%
Pressure 30.23 in1023.7 mb 30.23 in1023.7 mb 30.06 in1017.9 mb -
Hour Temp Dew Point Humidity Winds Wind Gusts Pressure Precip Precip Rate Daily Precip Total
11:20 PM 58.8°F14.9°C 50.2°F10.1°C 73% 0.6 mph NNW1.0 kmh NNW 1.4 mph2.3 kmh 30.23 in1023.7 mb 0.00 in0.0 mm 0.00 in/hr0.0 mm/hr 0.00 in0.0 mm
11:10 PM 58.9°F14.9°C 50.3°F10.2°C 73% 0.2 mph NNW0.3 kmh NNW 1.4 mph2.3 kmh 30.23 in1023.7 mb 0.00 in0.0 mm 0.00 in/hr0.0 mm/hr 0.00 in0.0 mm
11:00 PM 59.0°F15.0°C 50.0°F10.0°C 72% 0.5 mph NNW0.8 kmh NNW 2.8 mph4.5 kmh 30.22 in1023.4 mb 0.00 in0.0 mm 0.00 in/hr0.0 mm/hr 0.00 in0.0 mm
10:50 PM 59.0°F15.0°C 50.4°F10.2°C 73% 0.5 mph NNW0.8 kmh NNW 2.8 mph4.5 kmh 30.22 in1023.4 mb 0.00 in0.0 mm 0.00 in/hr0.0 mm/hr 0.00 in0.0 mm
10:40 PM 59.2°F15.1°C 50.1°F10.1°C 72% 1.3 mph NNW2.1 kmh NNW 2.8 mph4.5 kmh 30.22 in1023.4 mb 0.00 in0.0 mm 0.00 in/hr0.0 mm/hr 0.00 in0.0 mm
10:30 PM 59.3°F15.2°C 49.9°F9.9°C 71% 0.4 mph ESE0.6 kmh ESE 2.8 mph4.5 kmh 30.22 in1023.4 mb 0.00 in0.0 mm 0.00 in/hr0.0 mm/hr 0.00 in0.0 mm
10:20 PM 59.3°F15.2°C 49.9°F9.9°C 71% 0.4 mph NE0.6 kmh NE -- 30.22 in1023.4 mb 0.00 in0.0 mm 0.00 in/hr0.0 mm/hr 0.00 in0.0 mm
10:10 PM 59.5°F15.3°C 50.1°F10.1°C 71% Calm Calm -- 30.22 in1023.4 mb 0.00 in0.0 mm 0.00 in/hr0.0 mm/hr 0.00 in0.0 mm
10:00 PM 59.5°F15.3°C 50.1°F10.1°C 71% 0.1 mph NW0.2 kmh NW -- 30.22 in1023.4 mb 0.00 in0.0 mm 0.00 in/hr0.0 mm/hr 0.00 in0.0 mm
09:50 PM 59.7°F15.4°C 50.3°F10.2°C 71% 0.3 mph NNW0.5 kmh NNW 2.8 mph4.5 kmh 30.22 in1023.4 mb 0.00 in0.0 mm 0.00 in/hr0.0 mm/hr 0.00 in0.0 mm
09:40 PM 59.8°F15.4°C 50.0°F10.0°C 70% 1.0 mph N1.6 kmh N 2.8 mph4.5 kmh 30.22 in1023.4 mb 0.00 in0.0 mm 0.00 in/hr0.0 mm/hr 0.00 in0.0 mm
09:30 PM 60.0°F15.6°C 50.2°F10.1°C 70% 0.3 mph NE0.5 kmh NE 2.8 mph4.5 kmh 30.22 in1023.4 mb 0.00 in0.0 mm 0.00 in/hr0.0 mm/hr 0.00 in0.0 mm
09:20 PM 60.2°F15.7°C 50.0°F10.0°C 69% Calm Calm -- 30.22 in1023.4 mb 0.00 in0.0 mm 0.00 in/hr0.0 mm/hr 0.00 in0.0 mm
09:10 PM 60.3°F15.7°C 49.7°F9.8°C 68% 1.2 mph ENE1.9 kmh ENE 4.1 mph6.6 kmh 30.22 in1023.4 mb 0.00 in0.0 mm 0.00 in/hr0.0 mm/hr 0.00 in0.0 mm
09:00 PM 60.3°F15.7°C 49.7°F9.8°C 68% 2.1 mph NW3.4 kmh NW 5.5 mph8.9 kmh 30.22 in1023.4 mb 0.00 in0.0 mm 0.00 in/hr0.0 mm/hr 0.00 in0.0 mm
08:50 PM 60.3°F15.7°C 49.7°F9.8°C 68% 1.4 mph N2.3 kmh N 4.1 mph6.6 kmh 30.22 in1023.4 mb 0.00 in0.0 mm 0.00 in/hr0.0 mm/hr 0.00 in0.0 mm
08:40 PM 60.3°F15.7°C 50.5°F10.3°C 70% 1.9 mph NNW3.1 kmh NNW 2.8 mph4.5 kmh 30.22 in1023.4 mb 0.00 in0.0 mm 0.00 in/hr0.0 mm/hr 0.00 in0.0 mm
08:30 PM 60.5°F15.8°C 50.6°F10.3°C 70% 1.2 mph NW1.9 kmh NW 4.1 mph6.6 kmh 30.22 in1023.4 mb 0.00 in0.0 mm 0.00 in/hr0.0 mm/hr 0.00 in0.0 mm
08:20 PM 60.4°F15.8°C 50.2°F10.1°C 69% 0.4 mph NW0.6 kmh NW 2.8 mph4.5 kmh 30.22 in1023.4 mb 0.00 in0.0 mm 0.00 in/hr0.0 mm/hr 0.00 in0.0 mm
08:10 PM 60.5°F15.8°C 50.7°F10.4°C 70% 0.4 mph NW0.6 kmh NW 2.8 mph4.5 kmh 30.21 in1023.0 mb 0.00 in0.0 mm 0.00 in/hr0.0 mm/hr 0.00 in0.0 mm
08:00 PM 60.6°F15.9°C 50.8°F10.4°C 70% 2.9 mph NW4.7 kmh NW 5.5 mph8.9 kmh 30.21 in1023.0 mb 0.00 in0.0 mm 0.00 in/hr0.0 mm/hr 0.00 in0.0 mm
07:50 PM 60.7°F15.9°C 51.2°F10.7°C 71% 2.0 mph NNW3.2 kmh NNW 4.1 mph6.6 kmh 30.21 in1023.0 mb 0.00 in0.0 mm 0.00 in/hr0.0 mm/hr 0.00 in0.0 mm
07:40 PM 60.8°F16.0°C 51.3°F10.7°C 71% 2.9 mph NNW4.7 kmh NNW 5.5 mph8.9 kmh 30.21 in1023.0 mb 0.00 in0.0 mm 0.00 in/hr0.0 mm/hr 0.00 in0.0 mm
07:30 PM 61.0°F16.1°C 51.5°F10.8°C 71% 1.7 mph NW2.7 kmh NW 4.1 mph6.6 kmh 30.21 in1023.0 mb 0.00 in0.0 mm 0.00 in/hr0.0 mm/hr 0.00 in0.0 mm
07:20 PM 61.1°F16.2°C 51.6°F10.9°C 71% 1.1 mph N1.8 kmh N 2.8 mph4.5 kmh 30.20 in1022.7 mb 0.00 in0.0 mm 0.00 in/hr0.0 mm/hr 0.00 in0.0 mm
07:10 PM 61.4°F16.3°C 51.5°F10.8°C 70% 1.4 mph N2.3 kmh N 2.8 mph4.5 kmh 30.20 in1022.7 mb 0.00 in0.0 mm 0.00 in/hr0.0 mm/hr 0.00 in0.0 mm
07:00 PM 61.5°F16.4°C 51.2°F10.7°C 69% 0.8 mph NNW1.3 kmh NNW 2.8 mph4.5 kmh 30.20 in1022.7 mb 0.00 in0.0 mm 0.00 in/hr0.0 mm/hr 0.00 in0.0 mm
06:50 PM 61.6°F16.4°C 51.3°F10.7°C 69% 0.6 mph NE1.0 kmh NE 2.8 mph4.5 kmh 30.20 in1022.7 mb 0.00 in0.0 mm 0.00 in/hr0.0 mm/hr 0.00 in0.0 mm
06:40 PM 61.7°F16.5°C 51.4°F10.8°C 69% 1.7 mph NW2.7 kmh NW 4.1 mph6.6 kmh 30.19 in1022.4 mb 0.00 in0.0 mm 0.00 in/hr0.0 mm/hr 0.00 in0.0 mm
06:30 PM 61.9°F16.6°C 51.2°F10.7°C 68% 0.8 mph NNW1.3 kmh NNW 2.8 mph4.5 kmh 30.19 in1022.4 mb 0.00 in0.0 mm 0.00 in/hr0.0 mm/hr 0.00 in0.0 mm
06:20 PM 62.1°F16.7°C 51.0°F10.6°C 67% 2.5 mph NNW4.0 kmh NNW 5.5 mph8.9 kmh 30.19 in1022.4 mb 0.00 in0.0 mm 0.00 in/hr0.0 mm/hr 0.00 in0.0 mm
06:10 PM 62.2°F16.8°C 51.1°F10.6°C 67% 0.8 mph N1.3 kmh N 4.1 mph6.6 kmh 30.19 in1022.4 mb 0.00 in0.0 mm 0.00 in/hr0.0 mm/hr 0.00 in0.0 mm
06:00 PM 62.4°F16.9°C 50.9°F10.5°C 66% 0.9 mph NNW1.4 kmh NNW 2.8 mph4.5 kmh 30.19 in1022.4 mb 0.00 in0.0 mm 0.00 in/hr0.0 mm/hr 0.00 in0.0 mm
05:50 PM 62.5°F16.9°C 51.0°F10.6°C 66% 1.2 mph N1.9 kmh N 2.8 mph4.5 kmh 30.19 in1022.4 mb 0.00 in0.0 mm 0.00 in/hr0.0 mm/hr 0.00 in0.0 mm
05:40 PM 62.5°F16.9°C 51.0°F10.6°C 66% 2.9 mph NNW4.7 kmh NNW 4.1 mph6.6 kmh 30.19 in1022.4 mb 0.00 in0.0 mm 0.00 in/hr0.0 mm/hr 0.00 in0.0 mm
05:30 PM 62.6°F17.0°C 51.5°F10.8°C 67% 1.5 mph N2.4 kmh N 2.8 mph4.5 kmh 30.18 in1022.0 mb 0.00 in0.0 mm 0.00 in/hr0.0 mm/hr 0.00 in0.0 mm
05:20 PM 62.7°F17.1°C 51.2°F10.7°C 66% 2.6 mph NW4.2 kmh NW 5.5 mph8.9 kmh 30.18 in1022.0 mb 0.00 in0.0 mm 0.00 in/hr0.0 mm/hr 0.00 in0.0 mm
05:10 PM 62.9°F17.2°C 51.4°F10.8°C 66% 1.4 mph NW2.3 kmh NW 2.8 mph4.5 kmh 30.19 in1022.4 mb 0.00 in0.0 mm 0.00 in/hr0.0 mm/hr 0.00 in0.0 mm
05:00 PM 62.8°F17.1°C 51.3°F10.7°C 66% 2.6 mph NNW4.2 kmh NNW 4.1 mph6.6 kmh 30.19 in1022.4 mb 0.00 in0.0 mm 0.00 in/hr0.0 mm/hr 0.00 in0.0 mm
04:50 PM 62.8°F17.1°C 51.3°F10.7°C 66% 3.8 mph WNW6.1 kmh WNW 6.9 mph11.1 kmh 30.19 in1022.4 mb 0.00 in0.0 mm 0.00 in/hr0.0 mm/hr 0.00 in0.0 mm
04:40 PM 62.7°F17.1°C 51.6°F10.9°C 67% 1.8 mph NW2.9 kmh NW 4.1 mph6.6 kmh 30.18 in1022.0 mb 0.00 in0.0 mm 0.00 in/hr0.0 mm/hr 0.00 in0.0 mm
04:30 PM 62.6°F17.0°C 51.5°F10.8°C 67% 3.6 mph NW5.8 kmh NW 5.2 mph8.4 kmh 30.19 in1022.4 mb 0.00 in0.0 mm 0.00 in/hr0.0 mm/hr 0.00 in0.0 mm
04:20 PM 62.8°F17.1°C 51.7°F10.9°C 67% 4.1 mph NNW6.6 kmh NNW 9.5 mph15.3 kmh 30.18 in1022.0 mb 0.00 in0.0 mm 0.00 in/hr0.0 mm/hr 0.00 in0.0 mm
04:10 PM 63.2°F17.3°C 51.6°F10.9°C 66% 6.0 mph NW9.7 kmh NW 10.9 mph17.5 kmh 30.18 in1022.0 mb 0.00 in0.0 mm 0.00 in/hr0.0 mm/hr 0.00 in0.0 mm
04:00 PM 63.5°F17.5°C 50.2°F10.1°C 62% 0.7 mph NW1.1 kmh NW 4.1 mph6.6 kmh 30.18 in1022.0 mb 0.00 in0.0 mm 0.00 in/hr0.0 mm/hr 0.00 in0.0 mm
03:50 PM 63.4°F17.4°C 50.1°F10.1°C 62% 2.1 mph NNW3.4 kmh NNW 5.5 mph8.9 kmh 30.18 in1022.0 mb 0.00 in0.0 mm 0.00 in/hr0.0 mm/hr 0.00 in0.0 mm
03:40 PM 63.4°F17.4°C 50.6°F10.3°C 63% 3.3 mph NNW5.3 kmh NNW 6.9 mph11.1 kmh 30.18 in1022.0 mb 0.00 in0.0 mm 0.00 in/hr0.0 mm/hr 0.00 in0.0 mm
03:30 PM 63.6°F17.6°C 50.7°F10.4°C 63% 2.1 mph N3.4 kmh N 5.5 mph8.9 kmh 30.18 in1022.0 mb 0.00 in0.0 mm 0.00 in/hr0.0 mm/hr 0.00 in0.0 mm
03:20 PM 63.3°F17.4°C 51.3°F10.7°C 65% 1.5 mph NW2.4 kmh NW 4.1 mph6.6 kmh 30.18 in1022.0 mb 0.00 in0.0 mm 0.00 in/hr0.0 mm/hr 0.00 in0.0 mm
03:10 PM 63.3°F17.4°C 50.9°F10.5°C 64% 4.9 mph N7.9 kmh N 8.3 mph13.4 kmh 30.18 in1022.0 mb 0.00 in0.0 mm 0.00 in/hr0.0 mm/hr 0.00 in0.0 mm
03:00 PM 63.6°F17.6°C 51.6°F10.9°C 65% 3.5 mph NNW5.6 kmh NNW 5.5 mph8.9 kmh 30.18 in1022.0 mb 0.00 in0.0 mm 0.00 in/hr0.0 mm/hr 0.00 in0.0 mm
02:50 PM 63.7°F17.6°C 51.3°F10.7°C 64% 1.8 mph NW2.9 kmh NW 4.1 mph6.6 kmh 30.18 in1022.0 mb 0.00 in0.0 mm 0.00 in/hr0.0 mm/hr 0.00 in0.0 mm
02:40 PM 63.2°F17.3°C 51.2°F10.7°C 65% 2.0 mph NNE3.2 kmh NNE 2.8 mph4.5 kmh 30.18 in1022.0 mb 0.00 in0.0 mm 0.00 in/hr0.0 mm/hr 0.00 in0.0 mm
02:30 PM 62.7°F17.1°C 51.2°F10.7°C 66% 2.5 mph NNW4.0 kmh NNW 5.5 mph8.9 kmh 30.18 in1022.0 mb 0.00 in0.0 mm 0.00 in/hr0.0 mm/hr 0.00 in0.0 mm
02:20 PM 62.6°F17.0°C 51.1°F10.6°C 66% 5.2 mph NW8.4 kmh NW 10.7 mph17.2 kmh 30.19 in1022.4 mb 0.00 in0.0 mm 0.00 in/hr0.0 mm/hr 0.00 in0.0 mm
02:10 PM 62.7°F17.1°C 50.3°F10.2°C 64% 4.0 mph NW6.4 kmh NW 8.3 mph13.4 kmh 30.19 in1022.4 mb 0.00 in0.0 mm 0.00 in/hr0.0 mm/hr 0.00 in0.0 mm
02:00 PM 63.3°F17.4°C 50.5°F10.3°C 63% 4.0 mph W6.4 kmh W 8.3 mph13.4 kmh 30.18 in1022.0 mb 0.00 in0.0 mm 0.00 in/hr0.0 mm/hr 0.00 in0.0 mm
01:50 PM 63.6°F17.6°C 50.4°F10.2°C 62% 3.7 mph NW6.0 kmh NW 5.5 mph8.9 kmh 30.18 in1022.0 mb 0.00 in0.0 mm 0.00 in/hr0.0 mm/hr 0.00 in0.0 mm
01:40 PM 63.4°F17.4°C 51.0°F10.6°C 64% 1.8 mph NW2.9 kmh NW 2.8 mph4.5 kmh 30.18 in1022.0 mb 0.00 in0.0 mm 0.00 in/hr0.0 mm/hr 0.00 in0.0 mm
01:30 PM 64.0°F17.8°C 51.2°F10.7°C 63% 1.3 mph NNW2.1 kmh NNW 5.5 mph8.9 kmh 30.18 in1022.0 mb 0.00 in0.0 mm 0.00 in/hr0.0 mm/hr 0.00 in0.0 mm
01:20 PM 63.5°F17.5°C 51.5°F10.8°C 65% 2.0 mph WSW3.2 kmh WSW 5.5 mph8.9 kmh 30.18 in1022.0 mb 0.00 in0.0 mm 0.00 in/hr0.0 mm/hr 0.00 in0.0 mm
01:10 PM 63.5°F17.5°C 51.5°F10.8°C 65% 1.0 mph NW1.6 kmh NW 4.0 mph6.4 kmh 30.18 in1022.0 mb 0.00 in0.0 mm 0.00 in/hr0.0 mm/hr 0.00 in0.0 mm
01:00 PM 63.1°F17.3°C 51.2°F10.7°C 65% 1.1 mph NE1.8 kmh NE 1.4 mph2.3 kmh 30.18 in1022.0 mb 0.00 in0.0 mm 0.00 in/hr0.0 mm/hr 0.00 in0.0 mm
12:50 PM 62.9°F17.2°C 50.1°F10.1°C 63% 1.6 mph N2.6 kmh N 5.5 mph8.9 kmh 30.18 in1022.0 mb 0.00 in0.0 mm 0.00 in/hr0.0 mm/hr 0.00 in0.0 mm
12:40 PM 63.0°F17.2°C 50.2°F10.1°C 63% 2.5 mph N4.0 kmh N 6.4 mph10.3 kmh 30.18 in1022.0 mb 0.00 in0.0 mm 0.00 in/hr0.0 mm/hr 0.00 in0.0 mm
12:30 PM 63.3°F17.4°C 49.6°F9.8°C 61% 3.6 mph N5.8 kmh N 6.9 mph11.1 kmh 30.18 in1022.0 mb 0.00 in0.0 mm 0.00 in/hr0.0 mm/hr 0.00 in0.0 mm
12:20 PM 63.2°F17.3°C 50.0°F10.0°C 62% 3.1 mph NNW5.0 kmh NNW 5.4 mph8.7 kmh 30.18 in1022.0 mb 0.00 in0.0 mm 0.00 in/hr0.0 mm/hr 0.00 in0.0 mm
12:10 PM 63.1°F17.3°C 49.9°F9.9°C 62% 0.7 mph N1.1 kmh N 4.1 mph6.6 kmh 30.18 in1022.0 mb 0.00 in0.0 mm 0.00 in/hr0.0 mm/hr 0.00 in0.0 mm
12:00 PM 63.0°F17.2°C 49.8°F9.9°C 62% 1.3 mph NW2.1 kmh NW 5.5 mph8.9 kmh 30.18 in1022.0 mb 0.00 in0.0 mm 0.00 in/hr0.0 mm/hr 0.00 in0.0 mm
11:50 AM 62.7°F17.1°C 49.5°F9.7°C 62% 1.8 mph SW2.9 kmh SW 4.1 mph6.6 kmh 30.18 in1022.0 mb 0.00 in0.0 mm 0.00 in/hr0.0 mm/hr 0.00 in0.0 mm
11:40 AM 62.8°F17.1°C 49.6°F9.8°C 62% 3.0 mph NE4.8 kmh NE 5.5 mph8.9 kmh 30.18 in1022.0 mb 0.00 in0.0 mm 0.00 in/hr0.0 mm/hr 0.00 in0.0 mm
11:30 AM 62.9°F17.2°C 50.6°F10.3°C 64% 0.4 mph NW0.6 kmh NW 1.4 mph2.3 kmh 30.18 in1022.0 mb 0.00 in0.0 mm 0.00 in/hr0.0 mm/hr 0.00 in0.0 mm
11:20 AM 62.3°F16.8°C 50.0°F10.0°C 64% 0.5 mph W0.8 kmh W 1.4 mph2.3 kmh 30.18 in1022.0 mb 0.00 in0.0 mm 0.00 in/hr0.0 mm/hr 0.00 in0.0 mm
11:10 AM 62.3°F16.8°C 50.0°F10.0°C 64% 3.6 mph NE5.8 kmh NE 6.9 mph11.1 kmh 30.18 in1022.0 mb 0.00 in0.0 mm 0.00 in/hr0.0 mm/hr 0.00 in0.0 mm
11:00 AM 62.4°F16.9°C 49.6°F9.8°C 63% 4.3 mph NNW6.9 kmh NNW 5.5 mph8.9 kmh 30.18 in1022.0 mb 0.00 in0.0 mm 0.00 in/hr0.0 mm/hr 0.00 in0.0 mm
10:50 AM 62.5°F16.9°C 50.2°F10.1°C 64% 3.4 mph N5.5 kmh N 6.9 mph11.1 kmh 30.18 in1022.0 mb 0.00 in0.0 mm 0.00 in/hr0.0 mm/hr 0.00 in0.0 mm
10:40 AM 62.3°F16.8°C 49.2°F9.6°C 62% 2.7 mph NW4.3 kmh NW 5.3 mph8.5 kmh 30.17 in1021.7 mb 0.00 in0.0 mm 0.00 in/hr0.0 mm/hr 0.00 in0.0 mm
10:30 AM 62.2°F16.8°C 49.9°F9.9°C 64% 2.8 mph NW4.5 kmh NW 5.4 mph8.7 kmh 30.17 in1021.7 mb 0.00 in0.0 mm 0.00 in/hr0.0 mm/hr 0.00 in0.0 mm
10:20 AM 57.2°F14.0°C 54.9°F12.7°C 92% 3.1 mph 5.0 kmh 6.7 mph10.8 kmh 30.14 in1020.7 mb 0.00 in0.0 mm 0.00 in/hr0.0 mm/hr 0.00 in0.0 mm
10:10 AM 57.2°F14.0°C 54.9°F12.7°C 92% 1.4 mph 2.3 kmh 4.1 mph6.6 kmh 30.14 in1020.7 mb 0.00 in0.0 mm 0.00 in/hr0.0 mm/hr 0.00 in0.0 mm
10:00 AM 57.2°F14.0°C 54.9°F12.7°C 92% 4.9 mph 7.9 kmh 7.8 mph12.6 kmh 30.14 in1020.7 mb 0.00 in0.0 mm 0.00 in/hr0.0 mm/hr 0.00 in0.0 mm
09:50 AM 57.2°F14.0°C 54.9°F12.7°C 92% 3.4 mph 5.5 kmh 5.5 mph8.9 kmh 30.14 in1020.7 mb 0.00 in0.0 mm 0.00 in/hr0.0 mm/hr 0.00 in0.0 mm
09:40 AM 57.2°F14.0°C 54.9°F12.7°C 92% 3.8 mph N6.1 kmh N 11.2 mph18.0 kmh 30.14 in1020.7 mb 0.00 in0.0 mm 0.00 in/hr0.0 mm/hr 0.00 in0.0 mm
09:30 AM 57.2°F14.0°C 54.9°F12.7°C 92% 3.0 mph 4.8 kmh 7.2 mph11.6 kmh 30.14 in1020.7 mb 0.00 in0.0 mm 0.00 in/hr0.0 mm/hr 0.00 in0.0 mm
09:20 AM 57.2°F14.0°C 54.9°F12.7°C 92% 3.3 mph 5.3 kmh 5.0 mph8.0 kmh 30.14 in1020.7 mb 0.00 in0.0 mm 0.00 in/hr0.0 mm/hr 0.00 in0.0 mm
09:10 AM 57.2°F14.0°C 54.9°F12.7°C 92% 2.2 mph N3.5 kmh N 4.1 mph6.6 kmh 30.14 in1020.7 mb 0.00 in0.0 mm 0.00 in/hr0.0 mm/hr 0.00 in0.0 mm
09:00 AM 57.2°F14.0°C 54.9°F12.7°C 92% 4.0 mph 6.4 kmh 6.7 mph10.8 kmh 30.14 in1020.7 mb 0.00 in0.0 mm 0.00 in/hr0.0 mm/hr 0.00 in0.0 mm
08:50 AM 57.2°F14.0°C 54.9°F12.7°C 92% 0.7 mph 1.1 kmh 10.9 mph17.5 kmh 30.14 in1020.7 mb 0.00 in0.0 mm 0.00 in/hr0.0 mm/hr 0.00 in0.0 mm
08:40 AM 57.2°F14.0°C 54.9°F12.7°C 92% 5.5 mph 8.9 kmh 7.2 mph11.6 kmh 30.14 in1020.7 mb 0.00 in0.0 mm 0.00 in/hr0.0 mm/hr 0.00 in0.0 mm
08:30 AM 57.2°F14.0°C 54.9°F12.7°C 92% 1.4 mph 2.3 kmh 4.0 mph6.4 kmh 30.14 in1020.7 mb 0.00 in0.0 mm 0.00 in/hr0.0 mm/hr 0.00 in0.0 mm
08:20 AM 57.2°F14.0°C 54.9°F12.7°C 92% 5.7 mph 9.2 kmh 8.0 mph12.9 kmh 30.14 in1020.7 mb 0.00 in0.0 mm 0.00 in/hr0.0 mm/hr 0.00 in0.0 mm
08:10 AM 57.2°F14.0°C 54.9°F12.7°C 92% 2.7 mph N4.3 kmh N 5.4 mph8.7 kmh 30.14 in1020.7 mb 0.00 in0.0 mm 0.00 in/hr0.0 mm/hr 0.00 in0.0 mm
08:00 AM 57.2°F14.0°C 54.9°F12.7°C 92% 0.8 mph 1.3 kmh 2.6 mph4.2 kmh 30.14 in1020.7 mb 0.00 in0.0 mm 0.00 in/hr0.0 mm/hr 0.00 in0.0 mm
07:50 AM 57.2°F14.0°C 54.9°F12.7°C 92% 0.9 mph N1.4 kmh N 2.7 mph4.3 kmh 30.14 in1020.7 mb 0.00 in0.0 mm 0.00 in/hr0.0 mm/hr 0.00 in0.0 mm
07:40 AM 57.2°F14.0°C 54.9°F12.7°C 92% 1.7 mph 2.7 kmh 3.5 mph5.6 kmh 30.14 in1020.7 mb 0.00 in0.0 mm 0.00 in/hr0.0 mm/hr 0.00 in0.0 mm
07:30 AM 57.2°F14.0°C 54.9°F12.7°C 92% 2.8 mph N4.5 kmh N 4.1 mph6.6 kmh 30.14 in1020.7 mb 0.00 in0.0 mm 0.00 in/hr0.0 mm/hr 0.00 in0.0 mm
07:20 AM 57.0°F13.9°C 54.7°F12.6°C 92% 2.0 mph NNW3.2 kmh NNW 2.8 mph4.5 kmh 30.14 in1020.7 mb 0.00 in0.0 mm 0.00 in/hr0.0 mm/hr 0.00 in0.0 mm
07:10 AM 56.8°F13.8°C 54.5°F12.5°C 92% 2.5 mph NNW4.0 kmh NNW 5.5 mph8.9 kmh 30.13 in1020.3 mb 0.00 in0.0 mm 0.00 in/hr0.0 mm/hr 0.00 in0.0 mm
07:00 AM 56.6°F13.7°C 54.3°F12.4°C 92% 4.9 mph NNW7.9 kmh NNW 6.9 mph11.1 kmh 30.13 in1020.3 mb 0.00 in0.0 mm 0.00 in/hr0.0 mm/hr 0.00 in0.0 mm
06:50 AM 56.2°F13.4°C 53.9°F12.2°C 92% 0.4 mph NW0.6 kmh NW 1.4 mph2.3 kmh 30.13 in1020.3 mb 0.00 in0.0 mm 0.00 in/hr0.0 mm/hr 0.00 in0.0 mm
06:40 AM 55.9°F13.3°C 53.6°F12.0°C 92% 1.1 mph NW1.8 kmh NW 2.8 mph4.5 kmh 30.12 in1020.0 mb 0.00 in0.0 mm 0.00 in/hr0.0 mm/hr 0.00 in0.0 mm
06:30 AM 55.6°F13.1°C 53.6°F12.0°C 93% Calm Calm -- 30.12 in1020.0 mb 0.00 in0.0 mm 0.00 in/hr0.0 mm/hr 0.00 in0.0 mm
06:20 AM 55.3°F12.9°C 53.3°F11.8°C 93% 0.7 mph NW1.1 kmh NW 1.4 mph2.3 kmh 30.12 in1020.0 mb 0.00 in0.0 mm 0.00 in/hr0.0 mm/hr 0.00 in0.0 mm
06:10 AM 55.3°F12.9°C 53.3°F11.8°C 93% 1.5 mph NNW2.4 kmh NNW 4.1 mph6.6 kmh 30.12 in1020.0 mb 0.00 in0.0 mm 0.00 in/hr0.0 mm/hr 0.00 in0.0 mm
06:00 AM 55.0°F12.8°C 53.3°F11.8°C 94% 2.8 mph NW4.5 kmh NW 5.5 mph8.9 kmh 30.11 in1019.6 mb 0.00 in0.0 mm 0.00 in/hr0.0 mm/hr 0.00 in0.0 mm
05:50 AM 55.0°F12.8°C 53.0°F11.7°C 93% 0.6 mph WNW1.0 kmh WNW 2.8 mph4.5 kmh 30.11 in1019.6 mb 0.00 in0.0 mm 0.00 in/hr0.0 mm/hr 0.00 in0.0 mm
05:30 AM 55.8°F13.2°C 53.5°F11.9°C 92% 0.5 mph ENE0.8 kmh ENE 4.1 mph6.6 kmh 30.10 in1019.3 mb 0.00 in0.0 mm 0.00 in/hr0.0 mm/hr 0.00 in0.0 mm
05:20 AM 56.1°F13.4°C 53.8°F12.1°C 92% 1.8 mph WNW2.9 kmh WNW 2.8 mph4.5 kmh 30.10 in1019.3 mb 0.00 in0.0 mm 0.00 in/hr0.0 mm/hr 0.00 in0.0 mm
05:10 AM 56.5°F13.6°C 53.9°F12.2°C 91% 2.2 mph NW3.5 kmh NW 5.1 mph8.2 kmh 30.10 in1019.3 mb 0.00 in0.0 mm 0.00 in/hr0.0 mm/hr 0.00 in0.0 mm
05:00 AM 56.8°F13.8°C 54.2°F12.3°C 91% 2.6 mph NNW4.2 kmh NNW 5.5 mph8.9 kmh 30.09 in1019.0 mb 0.00 in0.0 mm 0.00 in/hr0.0 mm/hr 0.00 in0.0 mm
04:50 AM 57.2°F14.0°C 54.6°F12.6°C 91% 5.2 mph NW8.4 kmh NW 6.9 mph11.1 kmh 30.09 in1019.0 mb 0.00 in0.0 mm 0.00 in/hr0.0 mm/hr 0.00 in0.0 mm
04:40 AM 57.5°F14.2°C 54.6°F12.6°C 90% 3.3 mph N5.3 kmh N 5.5 mph8.9 kmh 30.09 in1019.0 mb 0.00 in0.0 mm 0.00 in/hr0.0 mm/hr 0.00 in0.0 mm
04:30 AM 57.7°F14.3°C 54.8°F12.7°C 90% 2.7 mph NW4.3 kmh NW 5.5 mph8.9 kmh 30.09 in1019.0 mb 0.00 in0.0 mm 0.00 in/hr0.0 mm/hr 0.00 in0.0 mm
04:20 AM 57.8°F14.3°C 54.9°F12.7°C 90% 2.5 mph NNW4.0 kmh NNW 8.3 mph13.4 kmh 30.09 in1019.0 mb 0.00 in0.0 mm 0.00 in/hr0.0 mm/hr 0.00 in0.0 mm
04:10 AM 57.9°F14.4°C 54.9°F12.7°C 90% 3.5 mph W5.6 kmh W 4.7 mph7.6 kmh 30.08 in1018.6 mb 0.00 in0.0 mm 0.00 in/hr0.0 mm/hr 0.00 in0.0 mm
04:00 AM 57.9°F14.4°C 55.0°F12.8°C 90% 1.0 mph NW1.6 kmh NW 2.8 mph4.5 kmh 30.08 in1018.6 mb 0.00 in0.0 mm 0.00 in/hr0.0 mm/hr 0.00 in0.0 mm
03:50 AM 57.9°F14.4°C 55.0°F12.8°C 90% 0.3 mph NNW0.5 kmh NNW 1.4 mph2.3 kmh 30.08 in1018.6 mb 0.00 in0.0 mm 0.00 in/hr0.0 mm/hr 0.00 in0.0 mm
03:40 AM 58.0°F14.4°C 55.1°F12.8°C 90% 3.3 mph NW5.3 kmh NW 5.5 mph8.9 kmh 30.08 in1018.6 mb 0.00 in0.0 mm 0.00 in/hr0.0 mm/hr 0.00 in0.0 mm
03:30 AM 58.1°F14.5°C 55.2°F12.9°C 90% 3.2 mph NW5.1 kmh NW 5.5 mph8.9 kmh 30.07 in1018.3 mb 0.00 in0.0 mm 0.00 in/hr0.0 mm/hr 0.00 in0.0 mm
03:20 AM 58.3°F14.6°C 55.4°F13.0°C 90% 1.1 mph NW1.8 kmh NW 2.8 mph4.5 kmh 30.08 in1018.6 mb 0.00 in0.0 mm 0.00 in/hr0.0 mm/hr 0.00 in0.0 mm
03:10 AM 58.4°F14.7°C 55.5°F13.1°C 90% 2.9 mph NW4.7 kmh NW 5.5 mph8.9 kmh 30.07 in1018.3 mb 0.00 in0.0 mm 0.00 in/hr0.0 mm/hr 0.00 in0.0 mm
03:00 AM 58.3°F14.6°C 55.4°F13.0°C 90% 2.0 mph NW3.2 kmh NW 6.9 mph11.1 kmh 30.07 in1018.3 mb 0.00 in0.0 mm 0.00 in/hr0.0 mm/hr 0.00 in0.0 mm
02:50 AM 58.4°F14.7°C 55.8°F13.2°C 91% 3.4 mph NW5.5 kmh NW 5.5 mph8.9 kmh 30.07 in1018.3 mb 0.00 in0.0 mm 0.00 in/hr0.0 mm/hr 0.00 in0.0 mm
02:40 AM 58.4°F14.7°C 55.8°F13.2°C 91% 3.2 mph NNW5.1 kmh NNW 8.3 mph13.4 kmh 30.07 in1018.3 mb 0.00 in0.0 mm 0.00 in/hr0.0 mm/hr 0.00 in0.0 mm
02:30 AM 58.5°F14.7°C 55.9°F13.3°C 91% 2.1 mph N3.4 kmh N 6.9 mph11.1 kmh 30.07 in1018.3 mb 0.00 in0.0 mm 0.00 in/hr0.0 mm/hr 0.00 in0.0 mm
02:20 AM 58.6°F14.8°C 56.0°F13.3°C 91% 3.0 mph NW4.8 kmh NW 5.5 mph8.9 kmh 30.07 in1018.3 mb 0.00 in0.0 mm 0.00 in/hr0.0 mm/hr 0.00 in0.0 mm
02:10 AM 58.6°F14.8°C 56.3°F13.5°C 92% 4.3 mph NW6.9 kmh NW 8.3 mph13.4 kmh 30.07 in1018.3 mb 0.00 in0.0 mm 0.00 in/hr0.0 mm/hr 0.00 in0.0 mm
02:00 AM 58.7°F14.8°C 56.4°F13.6°C 92% 3.4 mph WNW5.5 kmh WNW 4.8 mph7.7 kmh 30.07 in1018.3 mb 0.00 in0.0 mm 0.00 in/hr0.0 mm/hr 0.00 in0.0 mm
01:50 AM 58.8°F14.9°C 56.5°F13.6°C 92% 4.7 mph NW7.6 kmh NW 11.0 mph17.7 kmh 30.07 in1018.3 mb 0.00 in0.0 mm 0.00 in/hr0.0 mm/hr 0.00 in0.0 mm
01:40 AM 59.0°F15.0°C 56.7°F13.7°C 92% 5.8 mph NW9.3 kmh NW 9.4 mph15.1 kmh 30.07 in1018.3 mb 0.00 in0.0 mm 0.00 in/hr0.0 mm/hr 0.00 in0.0 mm
01:30 AM 59.0°F15.0°C 57.0°F13.9°C 93% 3.8 mph NW6.1 kmh NW 6.7 mph10.8 kmh 30.07 in1018.3 mb 0.00 in0.0 mm 0.00 in/hr0.0 mm/hr 0.00 in0.0 mm
01:20 AM 59.1°F15.1°C 57.1°F13.9°C 93% 5.0 mph NW8.0 kmh NW 8.2 mph13.2 kmh 30.07 in1018.3 mb 0.00 in0.0 mm 0.00 in/hr0.0 mm/hr 0.00 in0.0 mm
01:10 AM 59.1°F15.1°C 57.1°F13.9°C 93% 3.5 mph NW5.6 kmh NW 5.5 mph8.9 kmh 30.07 in1018.3 mb 0.00 in0.0 mm 0.00 in/hr0.0 mm/hr 0.00 in0.0 mm
01:00 AM 59.1°F15.1°C 57.1°F13.9°C 93% 5.1 mph NW8.2 kmh NW 6.9 mph11.1 kmh 30.07 in1018.3 mb 0.00 in0.0 mm 0.00 in/hr0.0 mm/hr 0.00 in0.0 mm
12:50 AM 59.1°F15.1°C 57.1°F13.9°C 93% 4.3 mph NW6.9 kmh NW 5.5 mph8.9 kmh 30.07 in1018.3 mb 0.00 in0.0 mm 0.00 in/hr0.0 mm/hr 0.00 in0.0 mm
12:40 AM 59.1°F15.1°C 57.1°F13.9°C 93% 4.0 mph NW6.4 kmh NW 8.3 mph13.4 kmh 30.07 in1018.3 mb 0.00 in0.0 mm 0.00 in/hr0.0 mm/hr 0.00 in0.0 mm
12:30 AM 59.2°F15.1°C 57.5°F14.2°C 94% 3.9 mph NW6.3 kmh NW 6.9 mph11.1 kmh 30.07 in1018.3 mb 0.00 in0.0 mm 0.00 in/hr0.0 mm/hr 0.00 in0.0 mm
12:20 AM 59.2°F15.1°C 57.5°F14.2°C 94% 2.8 mph W4.5 kmh W 5.5 mph8.9 kmh 30.07 in1018.3 mb 0.00 in0.0 mm 0.00 in/hr0.0 mm/hr 0.00 in0.0 mm
12:10 AM 59.2°F15.1°C 57.5°F14.2°C 94% 4.2 mph WNW6.8 kmh WNW 8.3 mph13.4 kmh 30.06 in1017.9 mb 0.00 in0.0 mm 0.00 in/hr0.0 mm/hr 0.00 in0.0 mm
12:00 AM 59.3°F15.2°C 57.6°F14.2°C 94% 4.9 mph NW7.9 kmh NW 8.3 mph13.4 kmh 30.06 in1017.9 mb 0.00 in0.0 mm 0.00 in/hr0.0 mm/hr 0.00 in0.0 mm